createdAt,value
2023-03-06T00:01:20.141Z,14.40
2023-03-06T00:03:48.754Z,12.30
2023-03-06T00:06:17.404Z,10.20
2023-03-06T00:08:46.093Z,11.80
2023-03-06T00:11:15.814Z,12.10
2023-03-06T00:13:44.410Z,10.50
2023-03-06T00:16:13.761Z,14.80
2023-03-06T00:18:44.257Z,19.60
2023-03-06T00:21:12.703Z,23.00
2023-03-06T00:23:41.621Z,20.90
2023-03-06T00:26:10.813Z,14.40
2023-03-06T00:28:39.992Z,16.80
2023-03-06T00:31:08.876Z,15.30
2023-03-06T00:33:37.472Z,12.20
2023-03-06T00:36:07.354Z,10.80
2023-03-06T00:38:37.710Z,12.80
2023-03-06T00:41:12.718Z,15.40
2023-03-06T00:43:41.633Z,10.40
2023-03-06T00:46:10.476Z,12.80
2023-03-06T00:48:39.325Z,9.00
2023-03-06T00:51:07.897Z,11.80
2023-03-06T00:53:36.997Z,11.80
2023-03-06T00:56:06.455Z,11.90
2023-03-06T00:58:36.212Z,15.60
2023-03-06T01:01:05.436Z,25.00
2023-03-06T01:03:34.575Z,34.30
2023-03-06T01:06:03.602Z,21.20
2023-03-06T01:08:32.330Z,9.00
2023-03-06T01:11:01.075Z,56.30
2023-03-06T01:13:29.862Z,20.70
2023-03-06T01:16:12.293Z,11.70
2023-03-06T01:18:42.237Z,13.80
2023-03-06T01:21:13.660Z,19.00
2023-03-06T01:23:43.043Z,14.20
2023-03-06T01:26:11.935Z,39.90
2023-03-06T01:28:41.278Z,27.70
2023-03-06T01:31:11.335Z,24.10
2023-03-06T01:33:40.304Z,7.60
2023-03-06T01:36:12.738Z,52.70
2023-03-06T01:38:41.470Z,44.90
2023-03-06T01:41:11.133Z,18.30
2023-03-06T01:43:42.852Z,24.00
2023-03-06T01:46:30.613Z,26.20
2023-03-06T01:49:29.820Z,36.90
2023-03-06T01:52:07.835Z,33.40
2023-03-06T01:54:44.602Z,82.40
2023-03-06T01:57:22.931Z,89.20
2023-03-06T02:00:08.601Z,72.00
2023-03-06T02:02:59.099Z,42.40
2023-03-06T02:05:27.888Z,26.60
2023-03-06T02:07:58.013Z,29.00
2023-03-06T02:10:27.028Z,13.00
2023-03-06T02:12:55.956Z,10.40
2023-03-06T02:15:28.286Z,17.20
2023-03-06T02:17:57.479Z,16.70
2023-03-06T02:20:48.482Z,9.90
2023-03-06T02:23:45.530Z,13.50
2023-03-06T02:26:15.380Z,14.00
2023-03-06T02:28:44.039Z,30.80
2023-03-06T02:31:28.496Z,22.50
2023-03-06T02:34:15.523Z,12.90
2023-03-06T02:36:50.871Z,27.80
2023-03-06T02:39:24.507Z,18.90
2023-03-06T02:41:53.204Z,22.30
2023-03-06T02:44:24.162Z,11.30
2023-03-06T02:46:52.662Z,14.90
2023-03-06T02:49:21.445Z,12.80
2023-03-06T02:51:51.326Z,13.80
2023-03-06T02:54:19.949Z,19.50
2023-03-06T02:56:48.638Z,29.20
2023-03-06T02:59:17.229Z,31.60
2023-03-06T03:01:48.015Z,37.80
2023-03-06T03:04:16.872Z,34.70
2023-03-06T03:06:46.047Z,34.40
2023-03-06T03:09:15.442Z,25.70
2023-03-06T03:11:44.129Z,18.50
2023-03-06T03:14:12.920Z,20.90
2023-03-06T03:16:41.400Z,22.60
2023-03-06T03:19:10.100Z,18.40
2023-03-06T03:21:42.053Z,19.10
2023-03-06T03:24:10.647Z,17.40
2023-03-06T03:26:39.427Z,16.00
2023-03-06T03:29:14.781Z,18.30
2023-03-06T03:31:43.460Z,10.00
2023-03-06T03:34:12.145Z,7.10
2023-03-06T03:36:41.451Z,8.60
2023-03-06T03:39:11.396Z,9.20
2023-03-06T03:41:40.157Z,14.30
2023-03-06T03:44:10.626Z,9.20
2023-03-06T03:46:39.633Z,7.50
2023-03-06T03:49:12.407Z,9.60
2023-03-06T03:51:40.957Z,8.20
2023-03-06T03:54:10.149Z,10.00
2023-03-06T03:56:42.416Z,9.90
2023-03-06T03:59:16.221Z,9.70
2023-03-06T04:01:52.849Z,9.60
2023-03-06T04:04:22.461Z,16.20
2023-03-06T04:06:51.186Z,31.90
2023-03-06T04:09:20.136Z,30.90
2023-03-06T04:11:48.796Z,40.30
2023-03-06T04:14:17.865Z,37.10
2023-03-06T04:16:46.754Z,26.40
2023-03-06T04:19:15.354Z,13.70
2023-03-06T04:21:44.028Z,10.00
2023-03-06T04:24:13.023Z,11.50
2023-03-06T04:26:42.010Z,18.30
2023-03-06T04:29:11.006Z,10.80
2023-03-06T04:31:39.811Z,8.60
2023-03-06T04:34:08.788Z,12.20
2023-03-06T04:36:37.577Z,10.80
2023-03-06T04:39:09.902Z,12.60
2023-03-06T04:41:40.104Z,12.40
2023-03-06T04:44:09.385Z,13.70
2023-03-06T04:46:37.977Z,9.60
2023-03-06T04:49:07.164Z,11.60
2023-03-06T04:51:37.176Z,13.30
2023-03-06T04:54:05.966Z,10.00
2023-03-06T04:56:34.967Z,12.30
2023-03-06T04:59:04.671Z,12.10
2023-03-06T05:01:33.255Z,11.30
2023-03-06T05:04:02.028Z,9.70
2023-03-06T05:06:30.632Z,10.50
2023-03-06T05:08:59.414Z,10.10
2023-03-06T05:11:28.205Z,10.90
2023-03-06T05:13:56.818Z,11.40
2023-03-06T05:16:25.504Z,14.00
2023-03-06T05:18:53.958Z,17.40
2023-03-06T05:21:22.743Z,22.60
2023-03-06T05:23:51.226Z,15.60
2023-03-06T05:26:20.424Z,15.60
2023-03-06T05:28:49.010Z,13.60
2023-03-06T05:31:17.757Z,11.60
2023-03-06T05:33:46.437Z,14.40
2023-03-06T05:36:14.968Z,10.90
2023-03-06T05:38:43.655Z,11.20
2023-03-06T05:41:14.204Z,8.20
2023-03-06T05:43:43.123Z,12.00
2023-03-06T05:46:11.933Z,10.80
2023-03-06T05:48:40.869Z,11.10
2023-03-06T05:51:11.370Z,9.90
2023-03-06T05:53:39.874Z,11.80
2023-03-06T05:56:10.026Z,11.30
2023-03-06T05:58:39.002Z,11.90
2023-03-06T06:01:14.697Z,12.50
2023-03-06T06:03:44.863Z,9.80
2023-03-06T06:06:15.531Z,13.60
2023-03-06T06:08:44.827Z,16.70
2023-03-06T06:11:14.916Z,12.20
2023-03-06T06:13:44.056Z,16.10
2023-03-06T06:16:19.753Z,10.90
2023-03-06T06:18:48.417Z,12.70
2023-03-06T06:21:17.853Z,12.00
2023-03-06T06:23:47.050Z,11.30
2023-03-06T06:26:15.754Z,11.50
2023-03-06T06:28:44.322Z,13.40
2023-03-06T06:31:13.806Z,13.40
2023-03-06T06:33:42.822Z,14.30
2023-03-06T06:36:20.249Z,9.90
2023-03-06T06:38:50.410Z,13.80
2023-03-06T06:41:42.286Z,10.80
2023-03-06T06:44:11.504Z,10.00
2023-03-06T06:49:29.701Z,13.80
2023-03-06T06:51:59.086Z,20.70
2023-03-06T06:54:28.125Z,16.30
2023-03-06T06:56:56.611Z,16.80
2023-03-06T06:59:25.707Z,16.70
2023-03-06T07:01:54.313Z,16.90
2023-03-06T07:04:24.252Z,17.30
2023-03-06T07:06:56.973Z,15.50
2023-03-06T07:09:26.905Z,15.00
2023-03-06T07:11:56.256Z,15.40
2023-03-06T07:14:25.643Z,14.30
2023-03-06T07:16:54.294Z,14.30
2023-03-06T07:19:23.597Z,17.00
2023-03-06T07:21:52.392Z,16.70
2023-03-06T07:24:21.909Z,16.30
2023-03-06T07:26:50.475Z,20.90
2023-03-06T07:29:19.573Z,15.20
2023-03-06T07:31:49.553Z,12.90
2023-03-06T07:34:18.700Z,20.40
2023-03-06T07:36:47.784Z,20.00
2023-03-06T07:39:17.594Z,26.90
2023-03-06T07:41:46.289Z,22.40
2023-03-06T07:44:16.059Z,21.90
2023-03-06T07:46:45.329Z,24.30
2023-03-06T07:49:14.258Z,33.80
2023-03-06T07:51:43.297Z,20.90
2023-03-06T07:54:13.097Z,22.10
2023-03-06T07:56:41.588Z,31.70
2023-03-06T07:59:12.232Z,20.00
2023-03-06T08:01:41.804Z,19.80
2023-03-06T08:04:11.670Z,23.20
2023-03-06T08:06:41.452Z,24.30
2023-03-06T08:09:10.224Z,48.20
2023-03-06T08:11:39.542Z,29.10
2023-03-06T08:14:08.985Z,19.30
2023-03-06T08:16:38.061Z,19.90
2023-03-06T08:19:06.831Z,14.90
2023-03-06T08:21:36.538Z,17.60
2023-03-06T08:24:07.478Z,16.00
2023-03-06T08:26:39.166Z,16.60
2023-03-06T08:29:08.363Z,15.60
2023-03-06T08:31:40.184Z,13.80
2023-03-06T08:34:19.304Z,16.40
2023-03-06T08:36:48.940Z,14.60
2023-03-06T08:39:18.067Z,14.30
2023-03-06T08:41:47.741Z,13.80
2023-03-06T08:44:17.974Z,16.70
2023-03-06T08:46:46.547Z,18.60
2023-03-06T08:49:15.544Z,14.60
2023-03-06T08:51:44.672Z,16.90
2023-03-06T08:54:14.414Z,23.80
2023-03-06T08:56:44.891Z,25.40
2023-03-06T08:59:15.207Z,28.50
2023-03-06T09:01:46.204Z,25.80
2023-03-06T09:04:16.524Z,20.30
2023-03-06T09:06:46.561Z,18.10
2023-03-06T09:09:15.857Z,12.90
2023-03-06T09:11:46.121Z,12.60
2023-03-06T09:14:16.858Z,11.80
2023-03-06T09:16:45.983Z,15.50
2023-03-06T09:19:16.791Z,14.90
2023-03-06T09:21:46.421Z,14.80
2023-03-06T09:24:16.049Z,14.70
2023-03-06T09:26:47.664Z,11.30
2023-03-06T09:29:17.900Z,11.40
2023-03-06T09:31:46.466Z,11.90
2023-03-06T09:34:15.440Z,15.90
2023-03-06T09:36:56.050Z,13.10
2023-03-06T09:39:27.552Z,13.70
2023-03-06T09:41:58.784Z,14.20
2023-03-06T09:44:36.280Z,14.20
2023-03-06T09:47:33.787Z,14.10
2023-03-06T09:50:34.220Z,18.00
2023-03-06T09:53:28.701Z,19.20
2023-03-06T09:56:18.482Z,16.50
2023-03-06T09:59:03.557Z,15.30
2023-03-06T10:01:37.102Z,17.30
2023-03-06T10:04:37.695Z,20.30
2023-03-06T10:07:19.488Z,13.70
2023-03-06T10:09:51.421Z,12.50
2023-03-06T10:12:25.793Z,10.20
2023-03-06T10:15:07.663Z,11.60
2023-03-06T10:17:43.210Z,10.90
2023-03-06T10:20:24.541Z,14.90
2023-03-06T10:23:24.521Z,14.80
2023-03-06T10:26:20.419Z,15.00
2023-03-06T10:29:05.826Z,16.30
2023-03-06T10:31:37.445Z,16.10
2023-03-06T10:34:24.430Z,18.50
2023-03-06T10:36:52.978Z,14.00
2023-03-06T10:39:23.754Z,10.50
2023-03-06T10:41:53.932Z,12.20
2023-03-06T10:44:25.328Z,13.40
2023-03-06T10:46:54.812Z,11.90
2023-03-06T10:49:37.794Z,14.50
2023-03-06T10:52:16.744Z,16.80
2023-03-06T10:54:46.365Z,14.50
2023-03-06T10:57:29.071Z,14.50
2023-03-06T11:00:06.869Z,11.90
2023-03-06T11:02:41.414Z,11.90
2023-03-06T11:05:21.041Z,18.00
2023-03-06T11:07:59.649Z,10.90
2023-03-06T11:10:31.111Z,17.10
2023-03-06T11:13:06.450Z,30.80
2023-03-06T11:15:35.848Z,24.40
2023-03-06T11:18:31.329Z,13.50
2023-03-06T11:21:00.010Z,12.70
2023-03-06T11:23:47.931Z,10.10
2023-03-06T11:26:17.414Z,14.60
2023-03-06T11:29:17.344Z,18.90
2023-03-06T11:32:05.778Z,26.70
2023-03-06T11:34:51.185Z,21.10
2023-03-06T11:37:47.984Z,31.10
2023-03-06T11:40:37.390Z,26.70
2023-03-06T11:43:20.496Z,26.20
2023-03-06T11:46:13.341Z,27.40
2023-03-06T11:48:54.009Z,28.90
2023-03-06T11:51:33.549Z,27.10
2023-03-06T11:54:03.051Z,30.20
2023-03-06T11:56:41.069Z,16.50
2023-03-06T11:59:15.993Z,23.10
2023-03-06T12:01:54.896Z,23.60
2023-03-06T12:05:06.049Z,14.50
2023-03-06T12:08:22.930Z,25.70
2023-03-06T12:11:24.076Z,20.80
2023-03-06T12:14:26.348Z,21.40
2023-03-06T12:17:00.965Z,19.90
2023-03-06T12:19:50.343Z,25.80
2023-03-06T12:22:53.414Z,28.80
2023-03-06T12:25:39.837Z,16.40
2023-03-06T12:28:24.910Z,14.60
2023-03-06T12:31:19.855Z,21.40
2023-03-06T12:34:21.166Z,21.50
2023-03-06T12:37:32.142Z,14.90
2023-03-06T12:40:42.474Z,10.70
2023-03-06T12:43:41.820Z,11.20
2023-03-06T12:46:21.781Z,13.10
2023-03-06T12:49:08.881Z,17.40
2023-03-06T12:51:40.042Z,19.90
2023-03-06T12:54:14.626Z,19.00
2023-03-06T12:56:44.165Z,15.00
2023-03-06T12:59:48.496Z,15.10
2023-03-06T13:02:41.849Z,24.60
2023-03-06T13:05:39.265Z,19.90
2023-03-06T13:08:37.319Z,26.60
2023-03-06T13:11:32.592Z,24.80
2023-03-06T13:14:27.903Z,11.00
2023-03-06T13:17:36.730Z,12.10
2023-03-06T13:20:35.260Z,10.90
2023-03-06T13:23:29.918Z,11.00
2023-03-06T13:26:33.211Z,14.90
2023-03-06T13:29:02.317Z,38.30
2023-03-06T13:31:34.225Z,29.20
2023-03-06T13:34:32.450Z,19.00
2023-03-06T13:37:25.363Z,18.20
2023-03-06T13:39:57.570Z,12.80
2023-03-06T13:42:29.022Z,13.70
2023-03-06T13:45:18.503Z,12.50
2023-03-06T13:48:21.053Z,11.60
2023-03-06T13:50:50.069Z,11.10
2023-03-06T13:54:00.102Z,12.20
2023-03-06T13:57:02.631Z,14.20
2023-03-06T14:00:22.087Z,12.80
2023-03-06T14:03:33.885Z,10.70
2023-03-06T14:06:22.439Z,12.90
2023-03-06T14:08:51.787Z,13.00
2023-03-06T14:11:21.932Z,12.10
2023-03-06T14:13:55.196Z,13.40
2023-03-06T14:16:47.624Z,13.50
2023-03-06T14:19:19.780Z,14.70
2023-03-06T14:21:56.161Z,18.90
2023-03-06T14:25:05.980Z,19.40
2023-03-06T14:27:45.546Z,12.70
2023-03-06T14:30:26.294Z,10.10
2023-03-06T14:32:56.372Z,15.40
2023-03-06T14:35:34.642Z,15.80
2023-03-06T14:38:08.353Z,21.70
2023-03-06T14:40:46.857Z,15.10
2023-03-06T14:43:25.254Z,11.60
2023-03-06T14:46:05.343Z,22.20
2023-03-06T14:48:52.132Z,22.00
2023-03-06T14:51:25.436Z,23.20
2023-03-06T14:54:01.281Z,16.20
2023-03-06T14:56:32.395Z,14.30
2023-03-06T14:59:06.082Z,13.70
2023-03-06T15:01:41.837Z,17.40
2023-03-06T15:04:37.191Z,14.00
2023-03-06T15:07:14.532Z,21.00
2023-03-06T15:09:50.950Z,17.90
2023-03-06T15:12:23.424Z,20.60
2023-03-06T15:15:30.955Z,16.50
2023-03-06T15:18:00.038Z,16.90
2023-03-06T15:20:41.818Z,21.20
2023-03-06T15:23:26.589Z,21.90
2023-03-06T15:25:59.049Z,21.00
2023-03-06T15:28:38.936Z,21.80
2023-03-06T15:31:11.022Z,20.00
2023-03-06T15:33:39.649Z,17.00
2023-03-06T15:36:29.791Z,14.50
2023-03-06T15:39:01.005Z,17.00
2023-03-06T15:41:38.277Z,18.30
2023-03-06T15:44:13.594Z,32.50
2023-03-06T15:46:42.514Z,27.80
2023-03-06T15:49:17.033Z,21.10
2023-03-06T15:51:45.527Z,25.00
2023-03-06T15:54:14.214Z,25.30
2023-03-06T15:56:46.187Z,34.80
2023-03-06T15:59:27.651Z,50.10
2023-03-06T16:01:56.179Z,32.80
2023-03-06T16:04:24.758Z,22.80
2023-03-06T16:06:54.144Z,11.00
2023-03-06T16:09:23.962Z,8.90
2023-03-06T16:11:52.427Z,9.20
2023-03-06T16:14:24.157Z,9.60
2023-03-06T16:16:55.260Z,9.60
2023-03-06T16:19:27.433Z,7.90
2023-03-06T16:21:57.241Z,8.70
2023-03-06T16:24:26.853Z,11.50
2023-03-06T16:26:56.115Z,13.50
2023-03-06T16:29:29.422Z,14.00
2023-03-06T16:31:59.164Z,15.30
2023-03-06T16:34:27.700Z,13.50
2023-03-06T16:36:56.606Z,10.80
2023-03-06T16:39:25.308Z,10.40
2023-03-06T16:41:53.984Z,12.70
2023-03-06T16:44:22.756Z,35.50
2023-03-06T16:46:51.548Z,35.40
2023-03-06T16:49:24.196Z,45.70
2023-03-06T16:51:54.255Z,84.20
2023-03-06T16:54:26.414Z,102.00
2023-03-06T16:56:55.212Z,56.00
2023-03-06T16:59:25.145Z,46.20
2023-03-06T17:01:53.713Z,42.80
2023-03-06T17:04:22.488Z,49.00
2023-03-06T17:06:53.127Z,33.90
2023-03-06T17:09:21.711Z,38.40
2023-03-06T17:11:50.405Z,35.60
2023-03-06T17:14:19.598Z,32.90
2023-03-06T17:16:48.485Z,21.70
2023-03-06T17:19:17.072Z,11.40
2023-03-06T17:21:45.653Z,12.10
2023-03-06T17:24:14.340Z,14.90
2023-03-06T17:26:44.562Z,13.00
2023-03-06T17:29:13.152Z,15.90
2023-03-06T17:31:42.044Z,18.10
2023-03-06T17:34:10.493Z,18.10
2023-03-06T17:36:39.209Z,20.90
2023-03-06T17:39:07.793Z,21.90
2023-03-06T17:41:36.481Z,30.70
2023-03-06T17:44:05.555Z,31.30
2023-03-06T17:46:35.098Z,35.90
2023-03-06T17:49:03.671Z,33.50
2023-03-06T17:51:32.467Z,34.50
2023-03-06T17:54:01.246Z,35.00
2023-03-06T17:56:29.830Z,24.30
2023-03-06T17:58:59.903Z,25.40
2023-03-06T18:01:30.556Z,19.50
2023-03-06T18:03:59.479Z,18.40
2023-03-06T18:06:30.510Z,26.20
2023-03-06T18:09:00.121Z,24.80
2023-03-06T18:11:29.454Z,23.60
2023-03-06T18:13:59.266Z,23.20
2023-03-06T18:16:29.372Z,28.30
2023-03-06T18:18:58.350Z,27.90
2023-03-06T18:21:27.551Z,35.00
2023-03-06T18:23:58.181Z,34.40
2023-03-06T18:26:30.392Z,41.20
2023-03-06T18:29:03.897Z,36.60
2023-03-06T18:31:36.164Z,37.30
2023-03-06T18:34:09.788Z,41.80
2023-03-06T18:36:40.464Z,32.70
2023-03-06T18:39:12.554Z,32.10
2023-03-06T18:41:41.929Z,35.10
2023-03-06T18:44:15.598Z,32.40
2023-03-06T18:46:45.045Z,39.50
2023-03-06T18:49:16.506Z,47.40
2023-03-06T18:51:45.279Z,36.50
2023-03-06T18:54:14.168Z,52.70
2023-03-06T18:56:44.905Z,59.50
2023-03-06T18:59:18.798Z,56.00
2023-03-06T19:01:48.833Z,49.00
2023-03-06T19:04:17.554Z,40.60
2023-03-06T19:06:46.313Z,37.70
2023-03-06T19:09:15.006Z,33.70
2023-03-06T19:11:45.938Z,25.80
2023-03-06T19:14:15.670Z,21.60
2023-03-06T19:16:44.863Z,18.60
2023-03-06T19:19:13.738Z,15.70
2023-03-06T19:21:42.632Z,16.60
2023-03-06T19:24:14.301Z,16.20
2023-03-06T19:26:43.516Z,19.60
2023-03-06T19:29:12.593Z,19.70
2023-03-06T19:31:42.298Z,34.70
2023-03-06T19:34:11.095Z,41.50
2023-03-06T19:36:41.208Z,41.10
2023-03-06T19:39:11.227Z,62.90
2023-03-06T19:41:40.122Z,64.70
2023-03-06T19:44:12.703Z,54.80
2023-03-06T19:46:41.697Z,65.90
2023-03-06T19:49:18.330Z,57.60
2023-03-06T19:51:46.984Z,52.00
2023-03-06T19:54:16.763Z,47.30
2023-03-06T19:56:46.170Z,46.90
2023-03-06T19:59:14.753Z,59.10
2023-03-06T20:01:43.556Z,76.20
2023-03-06T20:04:12.288Z,79.70
2023-03-06T20:06:42.218Z,53.50
2023-03-06T20:09:12.039Z,53.60
2023-03-06T20:11:41.367Z,41.80
2023-03-06T20:14:13.124Z,34.70
2023-03-06T20:16:42.217Z,37.50
2023-03-06T20:19:12.188Z,35.00
2023-03-06T20:21:41.323Z,36.80
2023-03-06T20:24:19.060Z,36.80
2023-03-06T20:26:51.125Z,35.70
2023-03-06T20:29:20.010Z,42.40
2023-03-06T20:31:49.314Z,42.90
2023-03-06T20:34:18.525Z,48.70
2023-03-06T20:36:47.671Z,41.80
2023-03-06T20:39:19.181Z,53.00
2023-03-06T20:41:48.939Z,62.30
2023-03-06T20:44:20.118Z,53.70
2023-03-06T20:46:49.245Z,42.10
2023-03-06T20:49:19.571Z,34.70
2023-03-06T20:51:50.548Z,32.10
2023-03-06T20:54:19.651Z,26.50
2023-03-06T20:56:50.511Z,24.80
2023-03-06T20:59:19.382Z,23.30
2023-03-06T21:01:48.243Z,22.00
2023-03-06T21:04:17.334Z,28.50
2023-03-06T21:06:47.222Z,25.90
2023-03-06T21:09:18.012Z,28.20
2023-03-06T21:11:47.303Z,27.20
2023-03-06T21:14:16.667Z,23.80
2023-03-06T21:16:45.621Z,25.20
2023-03-06T21:19:14.433Z,28.30
2023-03-06T21:21:43.507Z,21.90
2023-03-06T21:24:12.351Z,15.90
2023-03-06T21:26:41.182Z,23.00
2023-03-06T21:29:10.382Z,26.60
2023-03-06T21:31:39.281Z,28.70
2023-03-06T21:34:08.336Z,28.90
2023-03-06T21:36:38.384Z,21.10
2023-03-06T21:39:07.080Z,23.40
2023-03-06T21:41:36.182Z,21.60
2023-03-06T21:44:06.545Z,18.90
2023-03-06T21:46:35.394Z,25.30
2023-03-06T21:49:05.441Z,25.70
2023-03-06T21:51:34.831Z,28.30
2023-03-06T21:54:04.222Z,25.00
2023-03-06T21:56:33.843Z,19.70
2023-03-06T21:59:02.815Z,19.40
2023-03-06T22:01:31.605Z,18.40
2023-03-06T22:04:00.572Z,20.70
2023-03-06T22:06:31.535Z,20.90
2023-03-06T22:09:01.630Z,19.50
2023-03-06T22:11:31.681Z,16.90
2023-03-06T22:14:00.684Z,20.90
2023-03-06T22:16:30.110Z,21.00
2023-03-06T22:18:59.376Z,24.60
2023-03-06T22:21:28.379Z,23.00
2023-03-06T22:23:58.754Z,26.20
2023-03-06T22:26:30.120Z,21.80
2023-03-06T22:28:58.801Z,26.70
2023-03-06T22:31:29.525Z,31.90
2023-03-06T22:34:02.000Z,76.20
2023-03-06T22:36:31.441Z,29.00
2023-03-06T22:39:02.980Z,28.00
2023-03-06T22:41:31.985Z,28.20
2023-03-06T22:44:02.414Z,44.00
2023-03-06T22:46:32.125Z,48.00
2023-03-06T22:49:02.455Z,54.00
2023-03-06T22:51:31.391Z,108.10
2023-03-06T22:54:00.056Z,29.50
2023-03-06T22:56:28.958Z,16.60
2023-03-06T22:58:58.600Z,16.10
2023-03-06T23:01:30.720Z,18.30
2023-03-06T23:04:08.643Z,13.30
2023-03-06T23:06:41.507Z,18.80
2023-03-06T23:09:21.871Z,20.50
2023-03-06T23:12:12.052Z,16.60
2023-03-06T23:14:59.704Z,17.90
2023-03-06T23:17:47.421Z,20.40
2023-03-06T23:20:35.550Z,18.00
2023-03-06T23:23:23.594Z,16.50
2023-03-06T23:25:52.685Z,14.30
2023-03-06T23:28:21.270Z,24.80
2023-03-06T23:30:50.187Z,85.90
2023-03-06T23:33:18.951Z,38.80
2023-03-06T23:35:47.788Z,33.60
2023-03-06T23:38:16.794Z,77.50
2023-03-06T23:40:45.423Z,35.10
2023-03-06T23:43:14.314Z,20.30
2023-03-06T23:45:54.063Z,21.10
2023-03-06T23:48:23.673Z,17.80
2023-03-06T23:50:52.254Z,27.40
2023-03-06T23:53:21.760Z,17.80
2023-03-06T23:55:51.696Z,21.70
2023-03-06T23:58:20.571Z,43.50
